createdAt,value
2022-10-05T01:46:58.014Z,1.61
2022-10-05T04:44:39.377Z,1.23
2022-10-05T04:46:32.923Z,1.23
2022-10-05T05:07:11.820Z,1.44
2022-10-05T05:09:37.666Z,1.50
2022-10-05T05:17:35.961Z,1.62
2022-10-05T05:19:46.543Z,1.65
2022-10-05T05:26:06.358Z,1.86
2022-10-05T05:32:57.550Z,2.23
2022-10-05T05:37:12.341Z,2.58
2022-10-05T05:39:36.752Z,2.73
2022-10-05T06:17:55.443Z,5.51
2022-10-05T06:25:32.909Z,6.06
2022-10-05T06:27:11.770Z,6.12
2022-10-05T06:28:25.165Z,6.25
2022-10-05T06:30:21.259Z,6.51
2022-10-05T06:34:40.615Z,7.10
2022-10-05T06:36:36.717Z,7.24
2022-10-05T06:38:41.076Z,7.41
2022-10-05T06:40:20.909Z,7.59
2022-10-05T06:41:54.261Z,7.69
2022-10-05T06:43:28.358Z,7.82
2022-10-05T06:45:08.398Z,8.03
2022-10-05T06:46:35.765Z,8.26
2022-10-05T06:48:57.040Z,8.55
2022-10-05T06:53:09.664Z,9.17
2022-10-05T06:55:14.196Z,9.39
2022-10-05T06:56:38.998Z,9.82
2022-10-05T06:57:57.824Z,10.15
2022-10-05T06:59:14.209Z,10.42
2022-10-05T07:00:30.699Z,10.67
2022-10-05T07:02:03.790Z,10.91
2022-10-05T07:03:24.340Z,11.13
2022-10-05T07:05:46.953Z,11.29
2022-10-05T07:07:38.259Z,11.57
2022-10-05T07:09:14.555Z,11.72
2022-10-05T07:11:03.034Z,11.85
2022-10-05T07:12:48.519Z,11.92
2022-10-05T07:14:20.064Z,11.97
2022-10-05T07:15:39.896Z,12.02
2022-10-05T07:17:06.033Z,12.10
2022-10-05T07:18:40.258Z,12.20
2022-10-05T07:19:57.617Z,12.32
2022-10-05T07:21:12.659Z,12.48
2022-10-05T07:22:34.468Z,12.61
2022-10-05T07:24:02.067Z,12.70
2022-10-05T07:25:22.009Z,12.67
2022-10-05T07:26:42.135Z,12.66
2022-10-05T07:27:52.081Z,12.71
2022-10-05T07:29:32.214Z,12.81
2022-10-05T07:30:55.117Z,12.89
2022-10-05T07:32:18.639Z,13.05
2022-10-05T07:33:53.796Z,13.28
2022-10-05T07:35:08.918Z,13.35
2022-10-05T07:36:36.018Z,13.38
2022-10-05T07:38:00.868Z,13.43
2022-10-05T07:39:36.785Z,13.44
2022-10-05T07:41:10.535Z,13.43
2022-10-05T07:45:12.271Z,13.37
2022-10-05T07:50:11.734Z,13.61
2022-10-05T07:51:31.089Z,13.73
2022-10-05T07:52:45.471Z,13.84
2022-10-05T07:54:03.831Z,13.96
2022-10-05T07:55:16.970Z,14.03
2022-10-05T07:56:25.349Z,14.11
2022-10-05T07:57:35.287Z,14.14
2022-10-05T07:58:43.842Z,14.18
2022-10-05T07:59:57.490Z,14.26
2022-10-05T08:01:08.430Z,14.29
2022-10-05T08:02:19.111Z,14.28
2022-10-05T08:03:31.670Z,14.28
2022-10-05T08:04:42.949Z,14.25
2022-10-05T08:05:47.394Z,14.23
2022-10-05T08:06:55.398Z,14.24
2022-10-05T08:08:08.112Z,14.29
2022-10-05T08:09:25.711Z,14.33
2022-10-05T08:10:35.077Z,14.33
2022-10-05T08:11:45.997Z,14.34
2022-10-05T08:12:59.200Z,14.36
2022-10-05T08:14:07.760Z,14.33
2022-10-05T08:15:16.218Z,14.36
2022-10-05T08:16:20.186Z,14.37
2022-10-05T08:17:49.034Z,14.44
2022-10-05T08:18:57.948Z,14.52
2022-10-05T08:20:24.866Z,14.59
2022-10-05T08:21:33.248Z,14.65
2022-10-05T08:22:44.148Z,14.71
2022-10-05T08:23:48.997Z,14.76
2022-10-05T08:24:59.430Z,14.77
2022-10-05T08:26:12.495Z,14.78
2022-10-05T08:27:20.176Z,14.78
2022-10-05T08:28:27.250Z,14.79
2022-10-05T08:29:35.528Z,14.80
2022-10-05T08:30:52.479Z,14.83
2022-10-05T08:31:59.466Z,14.86
2022-10-05T08:33:10.701Z,14.83
2022-10-05T08:34:24.671Z,14.85
2022-10-05T08:35:34.220Z,14.85
2022-10-05T08:36:53.862Z,14.83
2022-10-05T08:37:58.805Z,14.82
2022-10-05T08:39:07.113Z,14.88
2022-10-05T08:40:47.202Z,15.01
2022-10-05T08:42:28.216Z,15.17
2022-10-05T08:43:55.873Z,15.29
2022-10-05T08:45:41.751Z,15.41
2022-10-05T08:47:12.410Z,15.59
2022-10-05T08:48:44.442Z,15.74
2022-10-05T08:50:19.690Z,15.85
2022-10-05T08:51:39.138Z,15.90
2022-10-05T08:52:56.436Z,15.91
2022-10-05T08:54:20.959Z,15.92
2022-10-05T08:55:33.597Z,15.91
2022-10-05T08:56:43.499Z,15.93
2022-10-05T08:58:16.998Z,16.01
2022-10-05T09:00:10.065Z,16.10
2022-10-05T09:01:21.236Z,16.19
2022-10-05T09:02:28.788Z,16.25
2022-10-05T09:04:02.526Z,16.34
2022-10-05T09:05:24.637Z,16.37
2022-10-05T09:06:51.325Z,16.36
2022-10-05T09:08:12.033Z,16.37
2022-10-05T09:09:47.446Z,16.42
2022-10-05T09:11:03.992Z,16.47
2022-10-05T09:12:26.710Z,16.50
2022-10-05T09:14:08.694Z,16.53
2022-10-05T09:15:28.120Z,16.55
2022-10-05T09:16:48.762Z,16.55
2022-10-05T09:18:27.946Z,16.59
2022-10-05T09:19:55.719Z,16.70
2022-10-05T09:21:04.355Z,16.77
2022-10-05T09:22:15.419Z,16.86
2022-10-05T09:23:37.295Z,16.88
2022-10-05T09:24:52.490Z,16.84
2022-10-05T09:25:59.788Z,16.77
2022-10-05T09:27:09.463Z,16.73
2022-10-05T09:28:25.111Z,16.70
2022-10-05T09:30:02.783Z,16.67
2022-10-05T09:31:35.138Z,16.66
2022-10-05T09:32:59.889Z,16.69
2022-10-05T09:34:43.089Z,16.71
2022-10-05T09:36:07.690Z,16.68
2022-10-05T09:37:46.709Z,16.67
2022-10-05T09:39:25.505Z,16.66
2022-10-05T09:41:14.585Z,16.68
2022-10-05T09:42:48.834Z,16.68
2022-10-05T09:44:22.299Z,16.76
2022-10-05T09:45:37.238Z,16.82
2022-10-05T09:47:15.667Z,16.90
2022-10-05T09:48:54.468Z,16.98
2022-10-05T09:50:23.086Z,17.01
2022-10-05T09:52:00.553Z,17.04
2022-10-05T09:53:13.679Z,17.12
2022-10-05T09:54:31.651Z,17.19
2022-10-05T09:56:05.527Z,17.24
2022-10-05T09:57:23.619Z,17.26
2022-10-05T09:59:06.884Z,17.26
2022-10-05T10:00:26.322Z,17.27
2022-10-05T10:01:37.765Z,17.31
2022-10-05T10:03:13.243Z,17.35
2022-10-05T10:04:33.637Z,17.43
2022-10-05T10:06:10.763Z,17.57
2022-10-05T10:07:45.748Z,17.74
2022-10-05T10:09:23.070Z,17.79
2022-10-05T10:10:59.500Z,17.80
2022-10-05T10:12:32.618Z,17.86
2022-10-05T10:14:15.797Z,17.88
2022-10-05T10:15:48.584Z,17.86
2022-10-05T10:17:02.067Z,17.87
2022-10-05T10:18:40.875Z,17.89
2022-10-05T10:19:59.609Z,17.90
2022-10-05T10:21:33.311Z,17.93
2022-10-05T10:22:53.488Z,17.99
2022-10-05T10:24:17.767Z,18.14
2022-10-05T10:25:36.579Z,18.28
2022-10-05T10:27:16.958Z,18.43
2022-10-05T10:28:50.628Z,18.55
2022-10-05T10:30:33.128Z,18.76
2022-10-05T10:31:50.206Z,19.03
2022-10-05T10:33:32.922Z,19.26
2022-10-05T10:35:19.686Z,19.44
2022-10-05T10:36:39.398Z,19.48
2022-10-05T10:38:10.560Z,19.56
2022-10-05T10:39:19.309Z,19.60
2022-10-05T10:40:35.320Z,19.65
2022-10-05T10:42:10.727Z,19.66
2022-10-05T10:43:30.046Z,19.69
2022-10-05T10:45:03.821Z,19.79
2022-10-05T10:46:18.871Z,19.75
2022-10-05T10:48:02.096Z,19.66
2022-10-05T10:49:32.542Z,19.58
2022-10-05T10:51:14.985Z,19.45
2022-10-05T10:52:41.458Z,19.40
2022-10-05T10:54:27.540Z,19.39
2022-10-05T10:55:42.510Z,19.37
2022-10-05T10:56:57.900Z,19.34
2022-10-05T10:58:42.582Z,19.34
2022-10-05T11:00:20.245Z,19.29
2022-10-05T11:01:34.458Z,19.26
2022-10-05T11:03:09.954Z,19.26
2022-10-05T11:04:36.938Z,19.27
2022-10-05T11:06:05.781Z,19.30
2022-10-05T11:07:36.927Z,19.34
2022-10-05T11:09:05.527Z,19.37
2022-10-05T11:10:36.108Z,19.35
2022-10-05T11:12:10.031Z,19.36
2022-10-05T11:13:56.437Z,19.37
2022-10-05T11:15:21.928Z,19.40
2022-10-05T11:17:07.849Z,19.44
2022-10-05T11:18:20.946Z,19.45
2022-10-05T11:20:04.481Z,19.48
2022-10-05T11:21:44.224Z,19.48
2022-10-05T11:22:57.646Z,19.45
2022-10-05T11:24:38.950Z,19.37
2022-10-05T11:25:56.751Z,19.30
2022-10-05T11:27:13.160Z,19.28
2022-10-05T11:28:30.443Z,19.28
2022-10-05T11:29:59.438Z,19.31
2022-10-05T11:31:31.866Z,19.34
2022-10-05T11:33:02.130Z,19.35
2022-10-05T11:34:35.556Z,19.35
2022-10-05T11:36:05.959Z,19.36
2022-10-05T11:37:36.574Z,19.42
2022-10-05T11:39:13.973Z,19.53
2022-10-05T11:41:02.499Z,19.60
2022-10-05T11:42:22.404Z,19.61
2022-10-05T11:43:52.465Z,19.63
2022-10-05T11:45:27.745Z,19.68
2022-10-05T11:46:37.555Z,19.68
2022-10-05T11:47:50.216Z,19.70
2022-10-05T11:49:11.100Z,19.73
2022-10-05T11:50:21.159Z,19.77
2022-10-05T11:51:46.173Z,19.77
2022-10-05T11:52:54.139Z,19.76
2022-10-05T11:54:07.020Z,19.77
2022-10-05T11:55:25.238Z,19.77
2022-10-05T11:56:32.439Z,19.79
2022-10-05T11:57:39.876Z,19.85
2022-10-05T11:58:48.872Z,19.88
2022-10-05T11:59:56.717Z,19.92
2022-10-05T12:01:04.497Z,20.00
2022-10-05T12:02:25.369Z,20.12
2022-10-05T12:03:42.756Z,20.18
2022-10-05T12:04:53.377Z,20.29
2022-10-05T12:06:13.350Z,20.40
2022-10-05T12:07:22.784Z,20.53
2022-10-05T12:08:34.285Z,20.63
2022-10-05T12:10:02.311Z,20.71
2022-10-05T12:11:17.689Z,20.80
2022-10-05T12:12:28.129Z,20.78
2022-10-05T12:13:37.723Z,20.74
2022-10-05T12:14:50.395Z,20.69
2022-10-05T12:15:57.325Z,20.69
2022-10-05T12:17:05.849Z,20.67
2022-10-05T12:18:14.909Z,20.65
2022-10-05T12:19:26.269Z,20.65
2022-10-05T12:20:34.098Z,20.66
2022-10-05T12:21:43.119Z,20.66
2022-10-05T12:22:49.594Z,20.65
2022-10-05T12:23:56.308Z,20.64
2022-10-05T12:25:20.956Z,20.71
2022-10-05T12:26:28.959Z,20.74
2022-10-05T12:27:36.908Z,20.80
2022-10-05T12:28:49.032Z,20.87
2022-10-05T12:30:01.731Z,20.90
2022-10-05T12:31:17.737Z,20.95
2022-10-05T12:32:25.181Z,21.06
2022-10-05T12:33:33.279Z,21.16
2022-10-05T12:34:45.528Z,21.24
2022-10-05T12:35:51.357Z,21.29
2022-10-05T12:37:03.973Z,21.33
2022-10-05T12:38:15.775Z,21.37
2022-10-05T12:39:25.175Z,21.45
2022-10-05T12:40:33.506Z,21.54
2022-10-05T12:41:45.429Z,21.56
2022-10-05T12:42:53.459Z,21.54
2022-10-05T12:44:06.608Z,21.51
2022-10-05T12:45:18.635Z,21.52
2022-10-05T12:46:31.647Z,21.55
2022-10-05T12:47:45.273Z,21.62
2022-10-05T12:49:07.118Z,21.63
2022-10-05T12:50:20.887Z,21.59
2022-10-05T12:51:36.046Z,21.50
2022-10-05T12:52:49.588Z,21.37
2022-10-05T12:53:58.641Z,21.23
2022-10-05T12:55:04.784Z,21.12
2022-10-05T12:56:12.174Z,20.99
2022-10-05T12:57:26.265Z,20.86
2022-10-05T12:58:37.242Z,20.75
2022-10-05T12:59:45.086Z,20.63
2022-10-05T13:00:54.794Z,20.53
2022-10-05T13:02:02.677Z,20.43
2022-10-05T13:03:15.578Z,20.34
2022-10-05T13:04:25.552Z,20.26
2022-10-05T13:05:33.259Z,20.21
2022-10-05T13:06:42.833Z,20.19
2022-10-05T13:08:03.071Z,20.19
2022-10-05T13:09:10.636Z,20.15
2022-10-05T13:10:28.479Z,20.10
2022-10-05T13:11:37.649Z,20.08
2022-10-05T13:12:48.276Z,20.09
2022-10-05T13:13:59.282Z,20.11
2022-10-05T13:15:06.988Z,20.10
2022-10-05T13:16:21.134Z,20.06
2022-10-05T13:17:30.833Z,19.99
2022-10-05T13:18:42.170Z,19.93
2022-10-05T13:19:48.875Z,19.85
2022-10-05T13:20:59.678Z,19.78
2022-10-05T13:22:22.869Z,19.70
2022-10-05T13:23:32.200Z,19.59
2022-10-05T13:24:38.951Z,19.52
2022-10-05T13:25:48.161Z,19.44
2022-10-05T13:26:55.718Z,19.40
2022-10-05T13:28:15.099Z,19.35
2022-10-05T13:29:23.798Z,19.30
2022-10-05T13:30:26.848Z,19.26
2022-10-05T13:31:34.603Z,19.23
2022-10-05T13:32:40.829Z,19.21
2022-10-05T13:34:07.752Z,19.21
2022-10-05T13:35:28.562Z,19.19
2022-10-05T13:36:39.247Z,19.14
2022-10-05T13:37:52.367Z,19.13
2022-10-05T13:38:58.745Z,19.11
2022-10-05T13:40:12.937Z,19.09
2022-10-05T13:41:21.946Z,19.08
2022-10-05T13:42:32.799Z,19.06
2022-10-05T13:43:45.171Z,19.07
2022-10-05T13:44:52.959Z,19.08
2022-10-05T13:46:02.346Z,19.07
2022-10-05T13:47:12.533Z,19.08
2022-10-05T13:48:37.428Z,19.08
2022-10-05T13:51:04.141Z,19.04
2022-10-05T13:52:21.558Z,19.07
2022-10-05T13:53:32.237Z,19.08
2022-10-05T13:54:44.038Z,19.09
2022-10-05T13:55:48.352Z,19.06
2022-10-05T13:56:58.010Z,19.05
2022-10-05T13:58:06.137Z,19.06
2022-10-05T13:59:17.951Z,19.12
2022-10-05T14:00:24.165Z,19.22
2022-10-05T14:01:38.684Z,19.36
2022-10-05T14:02:44.261Z,19.57
2022-10-05T14:04:12.247Z,19.74
2022-10-05T14:05:19.866Z,19.83
2022-10-05T14:06:30.216Z,19.92
2022-10-05T14:07:35.439Z,20.03
2022-10-05T14:08:48.559Z,20.12
2022-10-05T14:09:52.917Z,20.19
2022-10-05T14:10:57.225Z,20.28
2022-10-05T14:12:14.458Z,20.26
2022-10-05T14:13:21.309Z,20.23
2022-10-05T14:14:28.486Z,20.19
2022-10-05T14:15:39.824Z,20.14
2022-10-05T14:16:53.023Z,20.10
2022-10-05T14:17:58.864Z,20.09
2022-10-05T14:19:19.272Z,20.02
2022-10-05T14:20:27.165Z,19.94
2022-10-05T14:21:33.153Z,19.88
2022-10-05T14:22:46.695Z,19.82
2022-10-05T14:23:54.300Z,19.77
2022-10-05T14:25:09.377Z,19.77
2022-10-05T14:26:19.329Z,19.69
2022-10-05T14:27:26.024Z,19.65
2022-10-05T14:28:32.437Z,19.62
2022-10-05T14:29:39.667Z,19.57
2022-10-05T14:30:59.281Z,19.52
2022-10-05T14:32:12.968Z,19.51
2022-10-05T14:33:18.270Z,19.49
2022-10-05T14:34:32.505Z,19.44
2022-10-05T14:35:49.109Z,19.44
2022-10-05T14:36:56.911Z,19.37
2022-10-05T14:38:03.036Z,19.29
2022-10-05T14:39:13.438Z,19.21
2022-10-05T14:40:31.871Z,19.16
2022-10-05T14:41:37.969Z,19.09
2022-10-05T14:42:47.187Z,19.05
2022-10-05T14:43:54.787Z,18.96
2022-10-05T14:45:17.354Z,18.88
2022-10-05T14:46:28.199Z,18.79
2022-10-05T14:47:39.791Z,18.73
2022-10-05T14:48:44.228Z,18.71
2022-10-05T14:50:10.898Z,18.67
2022-10-05T14:51:28.422Z,18.57
2022-10-05T14:52:32.783Z,18.47
2022-10-05T14:53:43.550Z,18.39
2022-10-05T14:54:54.076Z,18.32
2022-10-05T14:56:35.025Z,18.24
2022-10-05T14:57:45.801Z,18.16
2022-10-05T14:59:05.617Z,18.11
2022-10-05T15:00:16.873Z,18.05
2022-10-05T15:01:26.659Z,18.00
2022-10-05T15:02:52.814Z,17.99
2022-10-05T15:04:07.639Z,17.92
2022-10-05T15:05:16.208Z,17.87
2022-10-05T15:06:27.247Z,17.84
2022-10-05T15:07:36.337Z,17.79
2022-10-05T15:08:53.019Z,17.71
2022-10-05T15:10:09.232Z,17.62
2022-10-05T15:11:23.363Z,17.54
2022-10-05T15:12:31.619Z,17.47
2022-10-05T15:13:40.310Z,17.41
2022-10-05T15:14:45.035Z,17.35
2022-10-05T15:15:55.096Z,17.29
2022-10-05T15:17:02.103Z,17.23
2022-10-05T15:18:08.024Z,17.18
2022-10-05T15:19:24.338Z,17.12
2022-10-05T15:20:36.025Z,17.05
2022-10-05T15:21:54.778Z,16.99
2022-10-05T15:23:08.715Z,16.93
2022-10-05T15:24:20.706Z,16.88
2022-10-05T15:25:32.998Z,16.84
2022-10-05T15:26:47.870Z,16.78
2022-10-05T15:28:14.025Z,16.73
2022-10-05T15:29:42.120Z,16.65
2022-10-05T15:30:53.486Z,16.60
2022-10-05T15:32:02.220Z,16.56
2022-10-05T15:33:17.075Z,16.54
2022-10-05T15:34:29.703Z,16.50
2022-10-05T15:35:43.258Z,16.44
2022-10-05T15:36:51.789Z,16.37
2022-10-05T15:37:58.199Z,16.35
2022-10-05T15:39:06.397Z,16.30
2022-10-05T15:40:18.686Z,16.25
2022-10-05T15:41:26.675Z,16.18
2022-10-05T15:42:35.498Z,16.13
2022-10-05T15:43:48.427Z,16.07
2022-10-05T15:45:02.876Z,16.01
2022-10-05T15:46:12.750Z,15.97
2022-10-05T15:47:22.140Z,15.93
2022-10-05T15:48:30.198Z,15.87
2022-10-05T15:49:41.169Z,15.83
2022-10-05T15:50:50.907Z,15.77
2022-10-05T15:52:00.958Z,15.71
2022-10-05T15:53:10.897Z,15.65
2022-10-05T15:54:40.525Z,15.60
2022-10-05T15:55:49.559Z,15.51
2022-10-05T15:56:57.585Z,15.44
2022-10-05T15:58:31.548Z,15.37
2022-10-05T15:59:40.208Z,15.27
2022-10-05T16:00:47.754Z,15.21
2022-10-05T16:01:56.821Z,15.17
2022-10-05T16:03:11.362Z,15.10
2022-10-05T16:04:22.238Z,15.05
2022-10-05T16:05:59.266Z,14.97
2022-10-05T16:07:21.742Z,14.85
2022-10-05T16:08:51.727Z,14.75
2022-10-05T16:09:58.759Z,14.66
2022-10-05T16:11:02.947Z,14.57
2022-10-05T16:12:14.869Z,14.52
2022-10-05T16:13:23.292Z,14.46
2022-10-05T16:14:36.763Z,14.41
2022-10-05T16:15:44.005Z,14.34
2022-10-05T16:17:01.498Z,14.28
2022-10-05T16:18:42.456Z,14.18
2022-10-05T16:20:03.388Z,14.05
2022-10-05T16:21:14.357Z,13.95
2022-10-05T16:22:23.709Z,13.88
2022-10-05T16:23:36.674Z,13.79
2022-10-05T16:24:52.249Z,13.74
2022-10-05T16:26:07.395Z,13.68
2022-10-05T16:27:13.927Z,13.62
2022-10-05T16:28:25.561Z,13.57
2022-10-05T16:29:44.412Z,13.54
2022-10-05T16:30:56.939Z,13.51
2022-10-05T16:32:07.959Z,13.46
2022-10-05T16:33:16.508Z,13.45
2022-10-05T16:34:30.844Z,13.43
2022-10-05T16:35:39.592Z,13.41
2022-10-05T16:36:52.506Z,13.40
2022-10-05T16:38:06.166Z,13.40
2022-10-05T16:39:56.838Z,13.40
2022-10-05T16:41:15.470Z,13.34
2022-10-05T16:42:36.473Z,13.27
2022-10-05T16:45:59.602Z,13.02
2022-10-05T16:54:23.605Z,12.54
2022-10-05T19:16:37.227Z,9.82
2022-10-05T19:50:24.836Z,9.34
2022-10-05T19:53:06.890Z,9.34
2022-10-05T20:15:27.387Z,8.76
2022-10-05T23:49:58.690Z,4.19
